createdAt,value
2022-10-17T00:01:18.252Z,3.61
2022-10-17T00:06:23.445Z,3.56
2022-10-17T00:11:27.221Z,3.53
2022-10-17T00:16:32.583Z,3.43
2022-10-17T00:21:37.572Z,3.48
2022-10-17T00:26:41.162Z,3.42
2022-10-17T00:31:44.872Z,3.42
2022-10-17T00:37:14.056Z,3.54
2022-10-17T00:42:17.817Z,3.53
2022-10-17T00:47:23.634Z,3.52
2022-10-17T00:52:30.486Z,3.48
2022-10-17T00:57:34.429Z,3.48
2022-10-17T01:02:38.021Z,3.72
2022-10-17T01:07:43.462Z,3.73
2022-10-17T01:12:53.599Z,3.56
2022-10-17T01:18:05.272Z,3.51
2022-10-17T01:23:19.235Z,3.61
2022-10-17T01:28:40.084Z,3.35
2022-10-17T01:33:52.577Z,3.57
2022-10-17T01:39:00.178Z,3.24
2022-10-17T01:44:06.596Z,3.19
2022-10-17T01:49:13.013Z,3.25
2022-10-17T01:54:19.802Z,3.20
2022-10-17T01:59:25.696Z,3.04
2022-10-17T02:04:30.888Z,3.03
2022-10-17T02:09:34.436Z,2.95
2022-10-17T02:14:43.825Z,3.02
2022-10-17T02:19:56.345Z,3.14
2022-10-17T02:25:03.878Z,3.08
2022-10-17T02:30:09.940Z,3.15
2022-10-17T02:35:19.326Z,3.22
2022-10-17T02:40:24.079Z,3.43
2022-10-17T02:45:30.360Z,3.46
2022-10-17T02:50:40.165Z,3.26
2022-10-17T02:55:47.387Z,3.18
2022-10-17T03:00:51.794Z,2.95
2022-10-17T03:06:03.860Z,3.01
2022-10-17T03:11:11.371Z,2.88
2022-10-17T03:16:18.484Z,2.65
2022-10-17T03:21:23.627Z,2.75
2022-10-17T03:26:29.639Z,2.94
2022-10-17T03:31:34.498Z,3.04
2022-10-17T03:36:43.864Z,2.77
2022-10-17T03:42:03.642Z,2.73
2022-10-17T03:47:09.279Z,2.50
2022-10-17T03:52:27.398Z,2.72
2022-10-17T03:57:32.502Z,2.76
2022-10-17T04:02:39.069Z,2.87
2022-10-17T04:07:44.154Z,2.80
2022-10-17T04:12:49.182Z,2.87
2022-10-17T04:17:52.895Z,3.06
2022-10-17T04:22:59.507Z,2.90
2022-10-17T04:28:06.563Z,2.77
2022-10-17T04:33:10.298Z,2.62
2022-10-17T04:38:22.794Z,2.75
2022-10-17T04:43:30.322Z,2.80
2022-10-17T04:48:34.029Z,2.61
2022-10-17T04:53:39.876Z,2.41
2022-10-17T04:58:44.062Z,2.62
2022-10-17T05:03:48.240Z,2.74
2022-10-17T05:08:53.301Z,2.98
2022-10-17T05:13:59.479Z,3.25
2022-10-17T05:19:03.892Z,3.29
2022-10-17T05:24:16.179Z,3.05
2022-10-17T05:29:19.766Z,3.22
2022-10-17T05:34:28.682Z,3.67
2022-10-17T05:39:33.849Z,4.21
2022-10-17T05:44:39.730Z,4.87
2022-10-17T05:49:49.769Z,5.43
2022-10-17T05:54:59.143Z,5.97
2022-10-17T06:00:04.929Z,6.70
2022-10-17T06:05:18.200Z,7.47
2022-10-17T06:10:26.536Z,8.18
2022-10-17T06:15:31.582Z,8.86
2022-10-17T06:20:45.288Z,9.64
2022-10-17T06:25:54.252Z,9.57
2022-10-17T06:30:58.335Z,9.13
2022-10-17T06:36:02.315Z,9.83
2022-10-17T06:41:13.409Z,11.19
2022-10-17T06:46:18.624Z,11.83
2022-10-17T06:51:32.601Z,11.75
2022-10-17T06:56:40.746Z,11.70
2022-10-17T07:02:05.442Z,12.00
2022-10-17T07:07:09.610Z,12.48
2022-10-17T07:12:15.335Z,13.15
2022-10-17T07:17:21.872Z,13.98
2022-10-17T07:22:25.537Z,14.46
2022-10-17T07:27:35.166Z,15.42
2022-10-17T07:32:39.051Z,15.52
2022-10-17T07:37:45.272Z,16.22
2022-10-17T07:42:54.550Z,16.36
2022-10-17T07:48:00.617Z,16.03
2022-10-17T07:53:04.452Z,15.82
2022-10-17T07:58:10.190Z,16.68
2022-10-17T08:03:13.896Z,16.92
2022-10-17T08:08:19.348Z,17.10
2022-10-17T08:13:24.535Z,18.08
2022-10-17T08:18:28.339Z,17.11
2022-10-17T08:23:32.016Z,17.80
2022-10-17T08:28:38.632Z,16.57
2022-10-17T08:33:43.075Z,16.98
2022-10-17T08:38:51.631Z,17.43
2022-10-17T08:44:11.473Z,17.03
2022-10-17T08:49:21.194Z,17.30
2022-10-17T08:54:31.277Z,18.47
2022-10-17T08:59:34.874Z,18.30
2022-10-17T09:04:48.073Z,18.47
2022-10-17T09:09:55.797Z,19.02
2022-10-17T09:15:07.585Z,18.95
2022-10-17T09:20:16.091Z,19.31
2022-10-17T09:25:20.970Z,19.28
2022-10-17T09:30:46.252Z,19.74
2022-10-17T09:35:52.316Z,19.90
2022-10-17T09:40:57.311Z,19.49
2022-10-17T09:46:05.434Z,20.43
2022-10-17T09:51:15.146Z,21.14
2022-10-17T09:56:29.165Z,21.28
2022-10-17T10:01:34.987Z,20.01
2022-10-17T10:06:41.074Z,20.44
2022-10-17T10:11:50.516Z,20.64
2022-10-17T10:16:54.874Z,21.20
2022-10-17T10:22:02.458Z,20.98
2022-10-17T10:27:06.810Z,21.58
2022-10-17T10:32:11.529Z,20.73
2022-10-17T10:37:20.229Z,21.27
2022-10-17T10:42:28.666Z,21.51
2022-10-17T10:47:33.035Z,21.18
2022-10-17T10:52:42.730Z,21.73
2022-10-17T10:57:48.845Z,21.01
2022-10-17T11:02:56.131Z,22.25
2022-10-17T11:08:06.473Z,21.92
2022-10-17T11:13:12.369Z,22.06
2022-10-17T11:18:22.386Z,21.21
2022-10-17T11:23:30.178Z,21.91
2022-10-17T11:28:34.873Z,21.51
2022-10-17T11:33:45.309Z,20.98
2022-10-17T11:38:52.131Z,20.99
2022-10-17T11:43:58.251Z,21.06
2022-10-17T11:49:06.029Z,21.52
2022-10-17T11:54:15.066Z,20.24
2022-10-17T11:59:33.681Z,21.93
2022-10-17T12:04:44.855Z,21.83
2022-10-17T12:09:59.858Z,22.05
2022-10-17T12:15:23.455Z,22.20
2022-10-17T12:20:28.812Z,21.85
2022-10-17T12:25:35.747Z,21.92
2022-10-17T12:30:50.478Z,22.20
2022-10-17T12:36:13.954Z,21.80
2022-10-17T12:41:39.147Z,22.03
2022-10-17T12:46:52.163Z,21.79
2022-10-17T12:52:23.040Z,21.64
2022-10-17T12:57:31.452Z,21.38
2022-10-17T13:02:35.131Z,20.94
2022-10-17T13:07:41.865Z,20.34
2022-10-17T13:12:46.885Z,20.05
2022-10-17T13:17:59.698Z,19.95
2022-10-17T13:23:03.860Z,20.26
2022-10-17T13:28:13.773Z,19.60
2022-10-17T13:33:20.263Z,19.12
2022-10-17T13:38:25.755Z,19.27
2022-10-17T13:43:32.313Z,19.04
2022-10-17T13:48:37.810Z,18.71
2022-10-17T13:53:44.240Z,18.34
2022-10-17T13:58:50.306Z,18.43
2022-10-17T14:04:07.912Z,17.89
2022-10-17T14:09:47.767Z,17.27
2022-10-17T14:15:13.077Z,16.84
2022-10-17T14:21:08.167Z,16.46
2022-10-17T14:25:43.079Z,16.32
2022-10-17T14:30:56.754Z,15.95
2022-10-17T14:36:02.589Z,15.75
2022-10-17T14:41:40.817Z,15.65
2022-10-17T14:46:34.193Z,15.26
2022-10-17T14:51:50.322Z,15.03
2022-10-17T14:57:01.115Z,14.76
2022-10-17T15:02:06.220Z,14.39
2022-10-17T15:07:14.635Z,14.06
2022-10-17T15:12:19.445Z,13.81
2022-10-17T15:17:26.658Z,13.51
2022-10-17T15:22:31.700Z,13.06
2022-10-17T15:27:35.672Z,12.94
2022-10-17T15:32:40.662Z,12.71
2022-10-17T15:37:44.675Z,12.31
2022-10-17T15:42:48.808Z,12.33
2022-10-17T15:47:55.261Z,12.20
2022-10-17T15:53:01.973Z,11.93
2022-10-17T15:58:05.756Z,11.74
2022-10-17T16:03:10.917Z,11.59
2022-10-17T16:08:14.557Z,11.32
2022-10-17T16:13:19.427Z,11.04
2022-10-17T16:18:26.900Z,10.97
2022-10-17T16:23:35.259Z,10.69
2022-10-17T16:28:43.632Z,10.55
2022-10-17T16:33:52.158Z,10.47
2022-10-17T16:38:56.033Z,10.25
2022-10-17T16:44:00.626Z,10.17
2022-10-17T16:49:06.359Z,10.17
2022-10-17T16:54:10.117Z,9.75
2022-10-17T16:59:13.664Z,9.67
2022-10-17T17:04:18.678Z,9.39
2022-10-17T17:09:22.593Z,9.31
2022-10-17T17:14:26.283Z,9.14
2022-10-17T17:19:31.439Z,9.10
2022-10-17T17:24:38.672Z,9.09
2022-10-17T17:29:42.341Z,9.05
2022-10-17T17:34:47.425Z,8.82
2022-10-17T17:39:53.283Z,8.80
2022-10-17T17:44:56.829Z,8.55
2022-10-17T17:50:03.325Z,8.38
2022-10-17T17:55:07.838Z,8.41
2022-10-17T18:00:12.082Z,8.17
2022-10-17T18:05:17.412Z,8.30
2022-10-17T18:10:22.117Z,8.15
2022-10-17T18:15:25.890Z,8.03
2022-10-17T18:20:32.964Z,8.04
2022-10-17T18:25:36.791Z,7.94
2022-10-17T18:30:41.015Z,8.09
2022-10-17T18:36:02.422Z,7.84
2022-10-17T18:41:11.248Z,7.70
2022-10-17T18:46:16.573Z,7.55
2022-10-17T18:51:24.358Z,7.52
2022-10-17T18:56:28.073Z,7.53
2022-10-17T19:01:31.691Z,7.44
2022-10-17T19:06:36.963Z,7.15
2022-10-17T19:11:40.917Z,7.00
2022-10-17T19:16:45.214Z,7.07
2022-10-17T19:21:55.920Z,6.91
2022-10-17T19:27:04.088Z,6.86
2022-10-17T19:32:33.522Z,7.06
2022-10-17T19:37:51.708Z,7.01
2022-10-17T19:43:08.040Z,6.97
2022-10-17T19:48:19.760Z,6.95
2022-10-17T19:53:25.329Z,6.93
2022-10-17T19:58:29.289Z,6.94
2022-10-17T20:03:32.858Z,6.95
2022-10-17T20:08:38.311Z,6.86
2022-10-17T20:13:42.261Z,6.69
2022-10-17T20:18:46.150Z,6.72
2022-10-17T20:23:53.373Z,6.58
2022-10-17T20:28:57.797Z,6.71
2022-10-17T20:34:03.768Z,6.95
2022-10-17T20:39:09.154Z,7.03
2022-10-17T20:44:12.918Z,6.75
2022-10-17T20:49:17.490Z,6.63
2022-10-17T20:54:25.067Z,6.45
2022-10-17T20:59:29.507Z,6.01
2022-10-17T21:04:45.895Z,6.33
2022-10-17T21:09:51.653Z,6.37
2022-10-17T21:14:55.366Z,6.50
2022-10-17T21:19:58.987Z,6.30
2022-10-17T21:25:04.252Z,6.04
2022-10-17T21:35:17.211Z,5.71
2022-10-17T21:40:23.197Z,5.75
2022-10-17T21:45:28.063Z,5.79
2022-10-17T21:50:32.477Z,5.76
2022-10-17T21:55:38.544Z,5.62
2022-10-17T22:00:42.353Z,5.51
2022-10-17T22:05:46.412Z,5.40
2022-10-17T22:10:51.519Z,5.38
2022-10-17T22:16:00.258Z,5.41
2022-10-17T22:21:04.303Z,5.28
2022-10-17T22:26:09.569Z,5.32
2022-10-17T22:31:13.355Z,5.26
2022-10-17T22:36:17.065Z,5.07
2022-10-17T22:41:22.197Z,5.23
2022-10-17T22:46:25.902Z,5.23
2022-10-17T22:51:30.760Z,5.11
2022-10-17T22:56:35.911Z,4.84
2022-10-17T23:01:39.643Z,4.80
2022-10-17T23:06:43.390Z,5.13
2022-10-17T23:11:52.541Z,5.51
2022-10-17T23:16:56.327Z,5.56
2022-10-17T23:22:01.843Z,5.83
2022-10-17T23:27:07.159Z,5.45
2022-10-17T23:32:10.824Z,5.29
2022-10-17T23:37:14.501Z,5.30
2022-10-17T23:42:19.514Z,4.92
2022-10-17T23:47:23.237Z,4.70
2022-10-17T23:52:26.969Z,4.38
2022-10-17T23:57:33.425Z,4.12
